Time;durP1;ratioP1;P1;durP2;ratioP2;P2;SDS_P1;SDS_P2;PMS_P1;PMS_P2;Temp;Humidity;BMP_temperature;BMP_pressure;BME280_temperature;BME280_humidity;BME280_pressure;Samples;Min_cycle;Max_cycle;Signal;HPM_P1;HPM_P2
2022/05/27 00:00:21;;;;;;;3.15;1.50;;;;;;;13.91;57.15;99978.31;1732743;80;21436;-73
2022/05/27 00:02:50;;;;;;;3.47;1.67;;;;;;;14.05;56.96;99979.08;1728641;81;21399;-76
2022/05/27 00:05:19;;;;;;;4.78;1.80;;;;;;;14.17;56.75;99972.53;1754903;80;21024;-72
2022/05/27 00:07:45;;;;;;;3.37;1.70;;;;;;;14.29;56.50;99969.98;1749210;80;20959;-73
2022/05/27 00:10:14;;;;;;;2.17;1.30;;;;;;;14.39;56.23;99969.05;1753228;80;21897;-72
2022/05/27 00:12:41;;;;;;;4.87;1.75;;;;;;;14.45;56.01;99971.93;1752169;80;20984;-72
2022/05/27 00:15:08;;;;;;;2.62;1.47;;;;;;;14.52;55.83;99971.65;1742636;81;21467;-73
2022/05/27 00:17:34;;;;;;;5.70;1.60;;;;;;;14.57;55.66;99964.52;1709179;83;21395;-73
2022/05/27 00:20:02;;;;;;;2.95;1.60;;;;;;;14.64;55.60;99970.88;1746820;80;21013;-73
2022/05/27 00:22:29;;;;;;;3.15;1.70;;;;;;;14.69;55.35;99968.59;1751773;80;22388;-73
2022/05/27 00:24:56;;;;;;;3.62;1.60;;;;;;;14.76;55.22;99970.94;1750806;80;21487;-73
2022/05/27 00:27:22;;;;;;;2.95;1.42;;;;;;;14.81;55.07;99968.66;1744283;80;20984;-73
2022/05/27 00:29:50;;;;;;;2.70;1.40;;;;;;;14.85;54.99;99967.83;1755211;80;21008;-74
2022/05/27 00:32:17;;;;;;;2.60;1.57;;;;;;;14.88;54.83;99964.88;1752354;80;21526;-73
2022/05/27 00:34:44;;;;;;;5.03;1.60;;;;;;;14.91;54.78;99956.56;1759433;80;21865;-75
2022/05/27 00:37:11;;;;;;;3.50;1.72;;;;;;;14.92;54.75;99956.06;1752435;80;21044;-73
2022/05/27 00:39:38;;;;;;;4.85;1.70;;;;;;;14.91;54.79;99957.89;1757155;80;20992;-73
2022/05/27 00:42:06;;;;;;;3.83;1.50;;;;;;;14.91;54.81;99958.39;1746596;80;20964;-73
2022/05/27 00:44:33;;;;;;;2.95;1.37;;;;;;;14.89;54.89;99951.41;1757304;80;21012;-73
2022/05/27 00:47:05;;;;;;;3.12;1.67;;;;;;;14.91;54.92;99956.56;1754750;80;21907;-72
2022/05/27 00:49:32;;;;;;;3.47;1.27;;;;;;;14.94;54.91;99953.58;1730487;81;20982;-74
2022/05/27 00:52:09;;;;;;;3.80;1.57;;;;;;;14.95;54.96;99953.08;1750857;80;20993;-74
2022/05/27 00:54:38;;;;;;;3.02;1.37;;;;;;;14.96;54.97;99952.08;1748306;80;21424;-72
2022/05/27 00:57:18;;;;;;;3.05;1.47;;;;;;;14.96;54.95;99951.61;1742461;81;20988;-73
2022/05/27 01:00:06;;;;;;;4.58;1.60;;;;;;;14.98;54.90;99952.28;1754753;80;21785;-72
2022/05/27 01:02:35;;;;;;;4.03;1.40;;;;;;;14.99;54.94;99951.28;1750595;80;21087;-72
2022/05/27 01:05:02;;;;;;;4.35;1.50;;;;;;;15.02;54.92;99952.78;1750634;80;21517;-75
2022/05/27 01:07:30;;;;;;;4.55;1.50;;;;;;;15.02;54.97;99944.30;1662692;84;21474;-72
2022/05/27 01:09:57;;;;;;;6.08;1.70;;;;;;;15.04;55.00;99949.45;1739344;81;21419;-71
2022/05/27 01:12:32;;;;;;;3.75;1.60;;;;;;;15.04;55.02;99952.95;1731644;81;21600;-72
2022/05/27 01:15:29;;;;;;;4.12;1.60;;;;;;;15.07;55.07;99945.17;1753649;80;21379;-72
2022/05/27 01:18:07;;;;;;;4.22;1.47;;;;;;;15.09;55.12;99943.17;1752412;80;20992;-72
2022/05/27 01:20:42;;;;;;;3.17;1.40;;;;;;;15.12;55.03;99942.84;1753278;80;21411;-72
2022/05/27 01:23:38;;;;;;;4.58;1.60;;;;;;;15.15;54.99;99949.16;1761871;79;21331;-72
2022/05/27 01:26:48;;;;;;;3.75;1.62;;;;;;;15.17;55.02;99941.38;1751353;80;22487;-74
2022/05/27 01:29:55;;;;;;;2.60;1.52;;;;;;;15.21;54.96;99945.86;1759347;79;20919;-73
2022/05/27 01:32:39;;;;;;;4.83;1.40;;;;;;;15.31;54.85;99949.22;1754666;79;21051;-74
2022/05/27 01:35:24;;;;;;;4.50;1.45;;;;;;;15.39;54.62;99964.38;1763846;80;21549;-77
2022/05/27 01:37:59;;;;;;;3.67;1.55;;;;;;;15.44;54.58;99964.23;1702219;82;21465;-73
2022/05/27 01:40:48;;;;;;;2.50;1.20;;;;;;;15.51;54.44;99970.22;1709628;83;21904;-73
2022/05/27 01:43:20;;;;;;;2.35;1.40;;;;;;;15.55;54.27;99965.75;1756190;80;21034;-74
2022/05/27 01:46:17;;;;;;;2.67;1.25;;;;;;;15.56;54.18;99973.23;1766654;80;20960;-72
2022/05/27 01:49:28;;;;;;;2.72;1.57;;;;;;;15.54;54.28;99973.88;1765043;80;21000;-73
2022/05/27 01:52:15;;;;;;;4.50;1.30;;;;;;;15.48;54.36;99974.55;1762186;79;20944;-73
2022/05/27 01:54:53;;;;;;;2.65;1.40;;;;;;;15.43;54.54;99982.50;1711770;82;22008;-74
2022/05/27 01:57:31;;;;;;;3.62;1.57;;;;;;;15.40;54.66;99982.00;1781601;79;20936;-74
2022/05/27 02:00:16;;;;;;;2.90;1.37;;;;;;;15.34;54.81;99985.30;1764474;80;21070;-73
2022/05/27 02:02:54;;;;;;;3.20;1.52;;;;;;;15.30;54.98;99987.97;1755703;79;21453;-72
2022/05/27 02:05:31;;;;;;;5.55;1.50;;;;;;;15.27;55.12;99990.95;1762296;79;21004;-71
2022/05/27 02:08:02;;;;;;;3.85;1.60;;;;;;;15.22;55.19;99984.77;1762753;79;22083;-70
2022/05/27 02:10:37;;;;;;;3.95;1.75;;;;;;;15.20;55.39;99983.28;1770391;80;20952;-71
2022/05/27 02:13:17;;;;;;;2.80;1.52;;;;;;;15.16;55.47;99985.44;1750293;81;20975;-71
2022/05/27 02:15:46;;;;;;;3.45;1.65;;;;;;;15.13;55.63;99985.73;1765400;79;21363;-73
2022/05/27 02:18:31;;;;;;;1.90;1.40;;;;;;;15.10;55.72;99988.73;1779128;79;21016;-73
2022/05/27 02:21:01;;;;;;;2.42;1.40;;;;;;;15.09;55.79;99993.71;1761803;79;21815;-74
2022/05/27 02:23:34;;;;;;;3.02;1.40;;;;;;;15.07;55.90;99989.05;1770178;79;21090;-74
2022/05/27 02:26:01;;;;;;;6.40;1.70;;;;;;;15.04;56.08;99995.50;1763585;80;21042;-74
2022/05/27 02:28:32;;;;;;;2.90;1.67;;;;;;;15.02;56.11;99993.51;1763793;80;20968;-73
2022/05/27 02:31:03;;;;;;;2.65;1.52;;;;;;;14.99;56.29;99995.66;1759507;80;21051;-72
2022/05/27 02:36:25;;;;;;;3.60;1.40;;;;;;;14.93;56.55;99992.30;1761052;80;21474;-72
2022/05/27 02:38:52;;;;;;;2.58;1.32;;;;;;;14.89;56.71;99992.63;1758447;80;21003;-73
2022/05/27 02:41:35;;;;;;;5.22;1.60;;;;;;;14.86;56.86;99992.09;1766603;80;21379;-73
2022/05/27 02:44:38;;;;;;;;;;;;;;;14.83;57.00;99998.56;1766124;80;21043;-72
2022/05/27 02:47:17;;;;;;;2.75;1.50;;;;;;;14.82;57.14;100011.53;1762373;80;21896;-72
2022/05/27 02:49:58;;;;;;;3.65;1.50;;;;;;;14.80;57.34;100016.17;1771562;80;22233;-73
2022/05/27 02:52:46;;;;;;;3.95;1.70;;;;;;;14.81;57.32;100016.52;1759932;80;21446;-71
2022/05/27 02:55:42;;;;;;;3.98;1.80;;;;;;;14.82;57.49;100019.50;1768840;80;21030;-74
2022/05/27 02:58:08;;;;;;;3.05;1.40;;;;;;;14.84;57.52;100018.84;1779804;80;21046;-73
2022/05/27 03:00:36;;;;;;;6.30;1.52;;;;;;;14.87;57.55;100021.21;1735271;81;22448;-73
2022/05/27 03:03:03;;;;;;;3.67;1.40;;;;;;;14.91;57.52;100012.41;1764376;80;21481;-72
2022/05/27 03:05:42;;;;;;;2.67;1.60;;;;;;;14.95;57.49;100016.41;1736248;81;21104;-73
2022/05/27 03:08:35;;;;;;;5.83;1.50;;;;;;;14.99;57.48;100018.27;1759939;80;20964;-73
2022/05/27 03:11:14;;;;;;;3.85;1.70;;;;;;;15.00;57.56;100024.76;1767763;80;21011;-73
2022/05/27 03:14:05;;;;;;;3.42;1.47;;;;;;;15.01;57.65;100012.29;1773313;80;21901;-73
2022/05/27 03:16:44;;;;;;;3.60;1.40;;;;;;;15.03;57.66;100019.11;1757344;80;21040;-72
2022/05/27 03:19:31;;;;;;;3.85;1.40;;;;;;;15.08;57.59;100019.98;1729530;80;20932;-73
2022/05/27 03:22:22;;;;;;;2.85;1.40;;;;;;;15.11;57.53;100013.00;1757959;80;21008;-73
2022/05/27 03:24:57;;;;;;;3.15;1.62;;;;;;;15.18;57.51;100016.70;1756898;80;21058;-72
2022/05/27 03:27:41;;;;;;;3.87;1.60;;;;;;;15.22;57.45;100022.02;1725035;81;21931;-72
2022/05/27 03:30:21;;;;;;;3.12;1.35;;;;;;;15.26;57.44;100022.55;1711347;80;20945;-74
2022/05/27 03:33:14;;;;;;;1.82;1.40;;;;;;;15.30;57.40;100026.05;1758330;80;21508;-71
2022/05/27 03:35:48;;;;;;;4.37;1.52;;;;;;;15.30;57.45;100019.39;1758057;80;21031;-72
2022/05/27 03:38:40;;;;;;;2.90;1.50;;;;;;;15.30;57.47;100019.39;1754722;80;20960;-74
2022/05/27 03:41:17;;;;;;;2.75;1.42;;;;;;;15.32;57.55;100029.38;1745381;81;21714;-72
2022/05/27 03:43:45;;;;;;;2.95;1.50;;;;;;;15.36;57.50;100035.23;1732834;81;21444;-72
2022/05/27 03:46:11;;;;;;;5.55;1.72;;;;;;;15.37;57.47;100040.39;1732664;81;21495;-71
2022/05/27 03:48:38;;;;;;;2.10;1.40;;;;;;;15.40;57.57;100036.56;1695528;81;21638;-72
2022/05/27 03:51:23;;;;;;;4.37;1.72;;;;;;;15.42;57.50;100038.56;1727910;81;21114;-71
2022/05/27 03:54:05;;;;;;;3.85;1.40;;;;;;;15.44;57.53;100045.41;1731006;81;21884;-72
2022/05/27 03:56:39;;;;;;;3.52;1.70;;;;;;;15.49;57.42;100048.07;1729863;81;21023;-73
2022/05/27 03:59:11;;;;;;;2.83;1.70;;;;;;;15.55;57.29;100055.42;1759678;80;27265;-72
2022/05/27 04:01:41;;;;;;;4.10;1.12;;;;;;;15.62;57.29;100057.28;1749863;80;21007;-74
2022/05/27 04:04:10;;;;;;;2.30;1.47;;;;;;;15.71;57.22;100058.14;1757011;80;21035;-73
2022/05/27 04:06:37;;;;;;;4.83;1.60;;;;;;;15.78;56.77;100053.84;1761141;80;22566;-72
2022/05/27 04:09:04;;;;;;;3.12;1.57;;;;;;;15.86;56.68;100053.03;1764737;80;21031;-73
2022/05/27 04:11:31;;;;;;;6.30;1.45;;;;;;;15.89;56.34;100057.52;1738909;81;21032;-76
2022/05/27 04:13:57;;;;;;;2.55;1.42;;;;;;;15.95;56.38;100058.71;1764999;80;21451;-71
2022/05/27 04:16:24;;;;;;;3.02;1.57;;;;;;;16.00;56.29;100063.86;1757470;80;21047;-71
2022/05/27 04:18:51;;;;;;;2.72;1.40;;;;;;;16.05;56.19;100066.05;1765090;80;22518;-72
2022/05/27 04:21:18;;;;;;;2.85;1.50;;;;;;;16.08;56.00;100068.38;1760114;80;21606;-73
2022/05/27 04:23:44;;;;;;;3.10;1.32;;;;;;;16.12;56.03;100060.91;1746532;81;21106;-73
2022/05/27 04:26:11;;;;;;;4.65;1.60;;;;;;;16.13;56.04;100067.90;1732537;80;21078;-76
2022/05/27 04:28:38;;;;;;;5.28;1.30;;;;;;;16.12;56.02;100065.73;1760143;80;21055;-75
2022/05/27 04:31:05;;;;;;;2.98;1.40;;;;;;;16.10;56.00;100068.20;1761166;80;21980;-73
2022/05/27 04:33:31;;;;;;;3.72;1.60;;;;;;;16.06;56.13;100070.38;1766138;80;21016;-76
2022/05/27 04:35:59;;;;;;;4.95;1.30;;;;;;;16.05;56.12;100063.89;1762052;80;21050;-73
2022/05/27 04:38:25;;;;;;;4.17;1.30;;;;;;;16.07;56.26;100063.22;1763611;80;21165;-73
2022/05/27 04:40:52;;;;;;;2.92;1.40;;;;;;;16.13;56.33;100072.72;1763464;80;21043;-72
2022/05/27 04:43:18;;;;;;;3.60;1.40;;;;;;;16.21;56.43;100065.22;1749061;80;21890;-72
2022/05/27 04:45:46;;;;;;;2.00;1.30;;;;;;;16.29;55.92;100071.39;1728296;81;21056;-72
2022/05/27 04:48:14;;;;;;;3.22;1.45;;;;;;;16.37;55.61;100077.22;1729321;81;21103;-73
2022/05/27 04:50:40;;;;;;;2.42;1.47;;;;;;;16.41;55.64;100072.41;1757863;80;21153;-72
2022/05/27 04:53:07;;;;;;;3.37;1.20;;;;;;;16.45;55.77;100075.90;1772675;80;21043;-72
2022/05/27 04:55:34;;;;;;;3.98;1.60;;;;;;;16.46;55.54;100073.56;1765253;80;21780;-74
2022/05/27 04:58:01;;;;;;;2.95;1.52;;;;;;;16.47;55.64;100081.89;1764231;80;21050;-77
2022/05/27 05:00:35;;;;;;;3.75;1.57;;;;;;;16.48;55.81;100081.39;1756561;80;21086;-72
2022/05/27 05:03:02;;;;;;;2.75;1.45;;;;;;;16.50;55.84;100081.58;1729726;81;21064;-73
2022/05/27 05:05:31;;;;;;;2.52;1.40;;;;;;;16.51;55.59;100081.91;1757468;80;21063;-76
2022/05/27 05:08:04;;;;;;;2.55;1.52;;;;;;;16.53;55.71;100081.23;1754656;80;21945;-77
2022/05/27 05:10:32;;;;;;;2.45;1.30;;;;;;;16.58;55.68;100084.72;1724682;81;21016;-74
2022/05/27 05:12:59;;;;;;;2.98;1.30;;;;;;;16.60;55.69;100083.57;1740580;81;21074;-74
2022/05/27 05:15:27;;;;;;;5.08;1.35;;;;;;;16.67;55.59;100084.21;1724139;81;21158;-74
2022/05/27 05:17:53;;;;;;;2.55;1.30;;;;;;;16.72;55.42;100075.25;1755331;80;21430;-73
2022/05/27 05:20:25;;;;;;;2.17;1.40;;;;;;;16.74;55.32;100080.74;1754215;80;21944;-75
2022/05/27 05:22:51;;;;;;;7.25;1.62;;;;;;;16.77;55.46;100079.06;1734880;81;21100;-74
2022/05/27 05:25:21;;;;;;;4.47;1.37;;;;;;;16.85;55.18;100074.22;1723562;81;21061;-73
2022/05/27 05:27:47;;;;;;;2.45;1.40;;;;;;;16.90;55.09;100074.56;1714030;81;20936;-72
2022/05/27 05:30:17;;;;;;;5.42;1.20;;;;;;;16.94;55.11;100071.88;1723343;81;21094;-73
2022/05/27 05:32:44;;;;;;;3.17;1.40;;;;;;;17.00;55.21;100067.70;1715183;82;22703;-74
2022/05/27 05:35:12;;;;;;;5.60;1.30;;;;;;;17.03;55.11;100065.52;1711249;81;21122;-73
2022/05/27 05:37:39;;;;;;;1.82;1.30;;;;;;;17.09;55.06;100070.17;1720839;81;21047;-74
2022/05/27 05:40:08;;;;;;;4.75;1.20;;;;;;;17.12;54.70;100076.50;1721824;82;21031;-77
2022/05/27 05:42:34;;;;;;;3.17;1.27;;;;;;;17.18;55.11;100072.32;1705792;82;21066;-72
2022/05/27 05:45:01;;;;;;;5.33;1.30;;;;;;;17.29;55.29;100071.95;1700440;82;22247;-73
2022/05/27 05:47:28;;;;;;;3.62;1.40;;;;;;;17.40;54.92;100066.73;1717733;81;21494;-71
2022/05/27 05:49:55;;;;;;;2.40;1.22;;;;;;;17.48;54.30;100065.36;1705573;83;21059;-72
2022/05/27 05:52:21;;;;;;;4.75;1.60;;;;;;;17.51;54.42;100062.84;1707002;83;21766;-72
2022/05/27 05:54:48;;;;;;;2.08;1.27;;;;;;;17.53;53.83;100070.17;1745150;81;21034;-74
2022/05/27 05:57:14;;;;;;;2.25;1.30;;;;;;;17.52;53.61;100069.84;1732835;81;22286;-74
2022/05/27 05:59:41;;;;;;;4.03;1.37;;;;;;;17.53;53.88;100068.83;1729993;81;21049;-73
2022/05/27 06:02:08;;;;;;;2.55;1.30;;;;;;;17.60;53.83;100073.31;1734311;81;21064;-72
2022/05/27 06:04:35;;;;;;;3.75;1.20;;;;;;;17.69;53.54;100080.78;1733853;81;21054;-75
2022/05/27 06:07:02;;;;;;;2.77;1.27;;;;;;;17.79;53.60;100068.57;1722132;83;20963;-74
2022/05/27 06:09:28;;;;;;;2.47;1.10;;;;;;;17.91;53.36;100072.00;1724953;81;22042;-74
2022/05/27 06:11:56;;;;;;;2.87;1.50;;;;;;;18.02;53.12;100076.09;1712926;81;20984;-72
2022/05/27 06:14:22;;;;;;;4.08;1.07;;;;;;;18.13;52.32;100066.84;1725864;81;21052;-71
2022/05/27 06:16:49;;;;;;;3.17;1.12;;;;;;;18.18;51.69;100061.30;1724911;81;21091;-71
2022/05/27 06:19:15;;;;;;;2.33;1.30;;;;;;;18.20;51.63;100064.61;1717858;81;21009;-72
2022/05/27 06:21:42;;;;;;;4.03;1.40;;;;;;;18.19;52.31;100063.46;1733289;81;21873;-79
2022/05/27 06:24:10;;;;;;;3.27;1.32;;;;;;;18.24;51.21;100053.91;1719737;81;21023;-70
2022/05/27 06:26:39;;;;;;;3.30;1.25;;;;;;;18.30;51.77;100059.86;1730634;81;22059;-70
2022/05/27 06:34:40;;;;;;;2.60;1.07;;;;;;;18.72;50.19;100055.86;1726512;82;21863;-71
2022/05/27 06:37:12;;;;;;;2.87;1.20;;;;;;;18.74;50.40;100057.02;1743388;81;20984;-73
2022/05/27 06:39:40;;;;;;;3.08;1.20;;;;;;;18.74;49.21;100055.17;1735859;81;21047;-72
2022/05/27 06:42:08;;;;;;;3.15;1.02;;;;;;;18.75;49.41;100062.17;1760419;80;21035;-75
2022/05/27 06:44:36;;;;;;;1.77;0.93;;;;;;;18.82;49.19;100060.44;1769172;80;21054;-72
2022/05/27 06:47:05;;;;;;;2.08;0.88;;;;;;;18.90;47.46;100058.67;1730714;81;21851;-73
2022/05/27 06:49:32;;;;;;;3.20;1.20;;;;;;;18.95;47.54;100074.52;1731576;81;21055;-72
2022/05/27 06:52:01;;;;;;;2.80;1.10;;;;;;;18.97;48.03;100055.59;1759198;80;21066;-72
2022/05/27 06:54:28;;;;;;;3.98;1.20;;;;;;;19.03;47.42;100049.01;1755543;81;21054;-72
2022/05/27 06:56:55;;;;;;;2.22;1.00;;;;;;;19.08;46.93;100060.48;1770083;80;21008;-73
2022/05/27 06:59:22;;;;;;;2.98;1.00;;;;;;;19.12;45.82;100054.59;1746089;81;21888;-72
2022/05/27 07:01:49;;;;;;;3.92;1.00;;;;;;;19.18;45.89;100065.56;1770627;80;21441;-70
2022/05/27 07:04:17;;;;;;;2.15;0.93;;;;;;;19.22;45.28;100064.20;1773775;80;21020;-73
2022/05/27 07:06:46;;;;;;;2.02;1.00;;;;;;;19.28;44.90;100076.82;1762142;81;21040;-71
2022/05/27 07:09:16;;;;;;;2.22;0.90;;;;;;;19.34;45.40;100064.04;1751605;81;21514;-75
2022/05/27 07:11:46;;;;;;;2.77;0.85;;;;;;;19.39;45.07;100071.82;1743665;81;21484;-73
2022/05/27 07:14:13;;;;;;;2.12;0.75;;;;;;;19.51;43.37;100069.52;1763628;80;20933;-75
2022/05/27 07:16:42;;;;;;;1.90;0.90;;;;;;;19.62;43.22;100070.92;1758802;81;21019;-71
2022/05/27 07:19:09;;;;;;;2.55;0.85;;;;;;;19.72;42.51;100076.81;1737212;82;21044;-72
2022/05/27 07:21:39;;;;;;;3.62;1.02;;;;;;;19.79;43.23;100067.52;1758606;80;21000;-75
2022/05/27 07:24:10;;;;;;;3.05;1.10;;;;;;;19.90;43.00;100075.06;1769084;80;21984;-73
2022/05/27 07:26:38;;;;;;;1.77;0.80;;;;;;;19.98;42.26;100068.25;1770519;80;20985;-75
2022/05/27 07:29:05;;;;;;;3.75;1.00;;;;;;;20.00;41.70;100051.45;1761401;80;21064;-73
2022/05/27 07:31:34;;;;;;;4.42;1.00;;;;;;;20.02;42.17;100060.13;1760741;80;21023;-72
2022/05/27 07:34:02;;;;;;;2.47;0.70;;;;;;;20.11;42.68;100050.94;1766543;80;21513;-72
2022/05/27 07:36:28;;;;;;;2.98;1.00;;;;;;;20.21;42.85;100050.63;1734743;81;21886;-71
2022/05/27 07:38:55;;;;;;;4.83;1.10;;;;;;;20.29;42.83;100054.52;1733766;81;21024;-72
2022/05/27 07:41:22;;;;;;;2.20;0.90;;;;;;;20.35;42.29;100042.17;1762055;81;21047;-72
2022/05/27 07:43:48;;;;;;;3.25;1.02;;;;;;;20.33;42.44;100041.03;1735406;80;21152;-71
2022/05/27 07:46:15;;;;;;;3.00;0.80;;;;;;;20.32;42.75;100043.39;1732341;82;21047;-71
2022/05/27 07:48:43;;;;;;;3.10;1.10;;;;;;;20.32;42.12;100042.56;1742647;80;21782;-72
2022/05/27 07:51:10;;;;;;;6.70;1.12;;;;;;;20.36;42.37;100032.58;1760683;81;21012;-72
2022/05/27 07:53:38;;;;;;;1.72;1.00;;;;;;;20.41;42.73;100037.38;1731314;81;21027;-72
2022/05/27 07:56:09;;;;;;;1.82;0.98;;;;;;;20.57;41.87;100044.68;1762380;81;21031;-71
2022/05/27 07:58:36;;;;;;;3.40;1.02;;;;;;;20.72;41.84;100045.08;1762128;81;21051;-72
2022/05/27 08:01:03;;;;;;;1.70;1.00;;;;;;;20.81;41.17;100047.94;1762232;81;22336;-71
2022/05/27 08:03:30;;;;;;;2.83;1.20;;;;;;;20.87;41.16;100053.87;1748411;80;21027;-71
2022/05/27 08:05:58;;;;;;;3.33;1.10;;;;;;;20.77;40.20;100052.88;1714410;81;21070;-72
2022/05/27 08:08:26;;;;;;;2.65;1.05;;;;;;;20.62;41.05;100047.28;1713102;81;21082;-73
2022/05/27 08:10:54;;;;;;;3.52;1.17;;;;;;;20.56;41.20;100044.88;1774467;80;21113;-72
2022/05/27 08:13:22;;;;;;;4.12;1.00;;;;;;;20.60;41.68;100028.70;1760112;80;21920;-71
2022/05/27 08:15:50;;;;;;;2.40;1.00;;;;;;;20.63;41.40;100024.78;1774142;80;21048;-72
2022/05/27 08:18:21;;;;;;;4.15;1.17;;;;;;;20.69;42.02;100028.04;1758705;80;21549;-71
2022/05/27 08:20:48;;;;;;;3.35;1.00;;;;;;;20.84;41.41;100025.58;1734921;81;21058;-72
2022/05/27 08:23:14;;;;;;;2.42;1.00;;;;;;;20.98;40.11;100018.93;1772493;80;21081;-72
2022/05/27 08:25:42;;;;;;;6.15;1.10;;;;;;;20.92;40.89;100007.11;1735910;81;21910;-76
2022/05/27 08:28:09;;;;;;;1.72;1.00;;;;;;;20.91;41.15;100016.20;1726859;81;21020;-70
2022/05/27 08:30:37;;;;;;;1.92;1.02;;;;;;;20.83;40.60;100019.86;1727713;81;21372;-72
2022/05/27 08:33:05;;;;;;;3.10;0.88;;;;;;;20.82;41.60;100007.98;1735822;81;21121;-71
2022/05/27 08:38:22;;;;;;;2.45;1.00;;;;;;;21.15;41.59;100000.95;1765733;80;21900;-73
2022/05/27 08:41:14;;;;;;;2.17;0.98;;;;;;;21.39;40.80;100002.31;1733129;81;21039;-71
2022/05/27 08:44:35;;;;;;;2.20;1.00;;;;;;;21.54;40.32;99997.31;1763313;80;21042;-75
2022/05/27 08:47:27;;;;;;;3.42;0.90;;;;;;;21.67;40.55;99999.51;1693754;83;21117;-72
2022/05/27 08:50:06;;;;;;;2.63;1.00;;;;;;;21.74;40.05;100012.98;1731151;82;21058;-75
2022/05/27 08:52:52;;;;;;;2.02;0.80;;;;;;;21.74;40.05;100012.98;1723836;81;21849;-73
2022/05/27 09:01:12;;;;;;;;;;;;;;;21.97;38.54;99980.33;1769535;80;21600;-75
2022/05/27 09:03:48;;;;;;;3.55;0.85;;;;;;;21.95;39.00;99991.81;1784337;80;20186;-71
2022/05/27 09:06:15;;;;;;;3.15;0.98;;;;;;;22.02;38.78;100007.45;1717896;81;21792;-73
2022/05/27 09:08:41;;;;;;;2.15;0.82;;;;;;;22.07;38.82;99986.67;1684514;82;21116;-72
2022/05/27 09:11:28;;;;;;;3.52;0.98;;;;;;;22.18;39.05;99982.02;1732626;82;21037;-74
2022/05/27 09:14:03;;;;;;;1.72;0.95;;;;;;;22.27;38.50;99982.12;1756163;80;21554;-72
2022/05/27 09:16:38;;;;;;;1.92;0.90;;;;;;;22.36;38.65;99977.37;1761640;80;21516;-71
2022/05/27 09:19:26;;;;;;;2.10;0.78;;;;;;;22.44;38.63;99983.89;1729939;82;21876;-76
2022/05/27 09:22:16;;;;;;;6.00;0.98;;;;;;;22.46;38.20;99975.91;1757327;80;21035;-71
2022/05/27 09:24:54;;;;;;;2.27;1.00;;;;;;;22.53;38.43;99988.02;1752962;80;21048;-71
2022/05/27 09:27:44;;;;;;;3.25;0.90;;;;;;;22.49;37.44;99983.58;1746793;80;20989;-75
2022/05/27 09:30:14;;;;;;;3.15;1.32;;;;;;;22.35;38.47;100001.28;1748849;80;21284;-76
2022/05/27 09:32:54;;;;;;;2.85;1.10;;;;;;;22.36;38.30;99991.64;1694159;83;21917;-76
2022/05/27 09:35:30;;;;;;;3.47;1.00;;;;;;;22.50;38.23;99987.09;1730152;81;21001;-75
2022/05/27 09:38:03;;;;;;;3.62;0.93;;;;;;;22.68;37.09;99991.81;1715284;83;21055;-75
2022/05/27 09:40:48;;;;;;;5.70;0.90;;;;;;;22.76;37.61;99984.34;1725290;81;21076;-73
2022/05/27 09:43:42;;;;;;;2.65;0.75;;;;;;;22.84;37.42;99988.71;1775392;80;21055;-74
2022/05/27 09:46:22;;;;;;;1.72;0.88;;;;;;;22.84;37.08;99969.34;1754940;80;21820;-73
2022/05/27 09:48:49;;;;;;;3.62;1.02;;;;;;;22.91;37.69;99982.80;1753309;81;21046;-73
2022/05/27 09:51:16;;;;;;;3.47;0.90;;;;;;;23.06;37.08;99976.62;1748307;80;21099;-74
2022/05/27 09:53:49;;;;;;;5.15;1.00;;;;;;;23.10;36.70;99968.44;1746209;82;21043;-77
2022/05/27 09:56:35;;;;;;;3.33;0.95;;;;;;;22.99;36.12;99969.63;1749787;80;21078;-73
2022/05/27 09:59:23;;;;;;;2.02;1.00;;;;;;;22.86;36.76;99971.82;1730634;81;22829;-75
2022/05/27 10:01:50;;;;;;;1.80;0.80;;;;;;;22.76;37.25;99966.02;1751484;80;21075;-74
2022/05/27 10:04:17;;;;;;;2.02;0.90;;;;;;;22.78;37.90;99972.04;1754460;81;20943;-75
2022/05/27 10:06:44;;;;;;;4.40;1.20;;;;;;;22.85;37.27;99970.99;1756174;81;21066;-77
2022/05/27 10:09:28;;;;;;;2.12;0.80;;;;;;;22.80;36.20;99961.88;1752316;80;21039;-76
2022/05/27 10:11:57;;;;;;;4.67;1.10;;;;;;;22.73;36.32;99951.64;1745506;80;21857;-74
2022/05/27 10:14:33;;;;;;;4.15;1.00;;;;;;;22.61;36.65;99959.54;1754241;80;21000;-73
2022/05/27 10:17:13;;;;;;;3.00;0.80;;;;;;;22.60;37.24;99942.26;1749064;80;21058;-74
2022/05/27 10:19:42;;;;;;;3.10;0.90;;;;;;;22.63;37.13;99935.09;1765134;80;21481;-73
2022/05/27 10:22:21;;;;;;;2.95;0.93;;;;;;;22.57;37.50;99946.17;1716806;81;21016;-75
2022/05/27 10:25:05;;;;;;;2.62;0.93;;;;;;;22.49;37.38;99935.66;1732826;80;21818;-74
2022/05/27 10:27:38;;;;;;;1.72;0.80;;;;;;;22.39;37.71;99937.92;1735997;81;21031;-73
2022/05/27 10:30:23;;;;;;;4.58;0.90;;;;;;;22.27;37.81;99945.28;1731400;81;21005;-75
2022/05/27 10:32:51;;;;;;;2.05;1.17;;;;;;;22.19;38.27;99942.80;1699348;84;21549;-75
2022/05/27 10:35:32;;;;;;;1.95;0.95;;;;;;;22.08;38.78;99939.92;1737068;81;21063;-74
2022/05/27 10:38:28;;;;;;;3.95;0.85;;;;;;;22.02;38.78;99934.83;1700703;82;21836;-74
2022/05/27 10:41:24;;;;;;;3.72;1.00;;;;;;;21.98;38.98;99939.78;1695002;82;21027;-76
2022/05/27 10:44:14;;;;;;;2.10;0.85;;;;;;;21.96;39.16;99941.85;1722528;81;21291;-75
2022/05/27 10:46:50;;;;;;;3.00;1.20;;;;;;;21.94;39.05;99932.34;1731541;81;22208;-74
2022/05/27 10:49:51;;;;;;;2.02;1.00;;;;;;;21.91;39.71;99932.77;1723410;82;21639;-73
2022/05/27 10:52:44;;;;;;;3.00;1.20;;;;;;;21.89;39.72;99929.43;1757368;80;21921;-73
2022/05/27 10:55:37;;;;;;;1.33;0.83;;;;;;;21.88;39.92;99933.98;1749224;80;21015;-73
2022/05/27 11:04:45;;;;;;;3.10;0.90;;;;;;;21.82;40.31;99922.73;1747822;80;21028;-75
2022/05/27 11:07:38;;;;;;;3.70;1.10;;;;;;;21.88;40.41;99921.06;1743661;81;22304;-74
2022/05/27 11:10:53;;;;;;;2.33;1.10;;;;;;;21.93;40.38;99921.28;1755566;81;20975;-76
2022/05/27 11:16:58;;;;;;;1.85;0.90;;;;;;;22.02;39.93;99916.01;1749401;80;21030;-77
2022/05/27 11:19:59;;;;;;;;;;;;;;;22.09;40.29;99910.13;1752527;80;20998;-79
2022/05/27 11:22:36;;;;;;;5.17;1.45;;;;;;;22.16;40.25;99907.44;1679801;84;21775;-74
2022/05/27 11:25:46;;;;;;;1.87;0.90;;;;;;;22.23;40.44;99906.40;1735279;80;21048;-80
2022/05/27 11:28:46;;;;;;;2.95;0.95;;;;;;;22.30;40.15;99903.71;1763685;80;21045;-76
2022/05/27 11:31:47;;;;;;;1.00;0.80;;;;;;;22.40;39.82;99902.76;1750579;80;21020;-71
2022/05/27 11:34:27;;;;;;;3.42;0.90;;;;;;;22.52;39.98;99902.93;1725882;81;21276;-73
2022/05/27 11:37:05;;;;;;;7.28;0.98;;;;;;;22.64;39.65;99900.41;1699141;84;22897;-74
2022/05/27 11:39:53;;;;;;;1.52;0.80;;;;;;;22.64;39.00;99895.03;1750056;80;21011;-74
2022/05/27 11:42:52;;;;;;;6.37;1.02;;;;;;;22.62;39.71;99894.42;1754439;81;21323;-73
2022/05/27 11:45:25;;;;;;;4.92;1.00;;;;;;;22.59;38.98;99897.02;1754853;80;21438;-74
2022/05/27 11:48:02;;;;;;;3.35;1.00;;;;;;;22.53;38.84;99878.49;1725552;83;21075;-75
2022/05/27 11:51:10;;;;;;;2.45;1.07;;;;;;;22.52;39.35;99882.75;1753641;80;21925;-77
2022/05/27 11:54:08;;;;;;;3.62;0.82;;;;;;;22.55;38.68;99891.21;1747095;80;21102;-76
2022/05/27 11:57:18;;;;;;;4.40;0.90;;;;;;;22.60;38.96;99881.17;1754556;81;21047;-73
2022/05/27 12:00:06;;;;;;;4.37;1.12;;;;;;;22.70;38.92;99877.52;1753059;80;21060;-73
2022/05/27 12:02:59;;;;;;;4.60;1.30;;;;;;;22.82;39.25;99881.19;1747522;80;21439;-71
2022/05/27 12:05:31;;;;;;;4.45;1.10;;;;;;;22.92;38.72;99869.98;1754087;80;21805;-76
2022/05/27 12:08:24;;;;;;;3.90;1.07;;;;;;;22.95;38.26;99875.46;1755618;80;21062;-75
2022/05/27 12:11:08;;;;;;;;;;;;;;;22.90;38.51;99873.95;1747432;80;21048;-74
2022/05/27 12:13:55;;;;;;;1.35;0.80;;;;;;;22.87;38.28;99867.62;1746148;80;20894;-81
2022/05/27 12:16:28;;;;;;;3.45;1.00;;;;;;;22.77;38.49;99872.91;1727011;81;21092;-72
2022/05/27 12:19:08;;;;;;;3.22;1.05;;;;;;;22.66;38.64;99869.54;1750956;81;21921;-76
2022/05/27 12:21:44;;;;;;;5.15;1.10;;;;;;;22.52;38.72;99858.00;1748363;81;21108;-74
2022/05/27 12:24:23;;;;;;;3.37;1.00;;;;;;;22.41;38.95;99861.35;1755626;80;21044;-73
2022/05/27 12:26:53;;;;;;;2.42;1.05;;;;;;;22.34;38.85;99861.05;1765781;79;21036;-75
2022/05/27 12:29:21;;;;;;;3.72;0.93;;;;;;;22.30;38.95;99857.14;1753670;81;21447;-73
2022/05/27 12:31:49;;;;;;;1.65;0.78;;;;;;;22.29;39.27;99849.56;1698278;83;22574;-73